createdAt,value
2023-05-21T00:02:20.045Z,77.40
2023-05-21T00:05:27.504Z,78.63
2023-05-21T00:08:47.643Z,75.88
2023-05-21T00:11:55.444Z,75.58
2023-05-21T00:15:07.081Z,77.26
2023-05-21T00:18:19.088Z,75.84
2023-05-21T00:21:47.280Z,76.16
2023-05-21T00:25:14.194Z,77.56
2023-05-21T00:28:21.505Z,78.26
2023-05-21T00:31:30.230Z,81.66
2023-05-21T00:34:37.283Z,82.43
2023-05-21T00:37:44.484Z,81.57
2023-05-21T00:40:51.691Z,82.47
2023-05-21T00:43:59.053Z,81.48
2023-05-21T00:47:08.182Z,79.42
2023-05-21T00:50:15.295Z,80.34
2023-05-21T00:53:15.003Z,80.54
2023-05-21T00:56:22.299Z,81.28
2023-05-21T00:59:29.669Z,82.40
2023-05-21T01:02:37.024Z,82.88
2023-05-21T01:05:44.703Z,83.87
2023-05-21T01:08:57.696Z,83.53
2023-05-21T01:12:04.922Z,83.77
2023-05-21T01:15:11.924Z,83.63
2023-05-21T01:18:19.471Z,83.50
2023-05-21T01:21:26.426Z,83.47
2023-05-21T01:24:33.441Z,83.80
2023-05-21T01:27:42.659Z,83.55
2023-05-21T01:30:49.974Z,82.89
2023-05-21T01:33:56.915Z,83.31
2023-05-21T01:37:03.849Z,83.88
2023-05-21T01:40:11.926Z,83.99
2023-05-21T01:43:26.969Z,83.97
2023-05-21T01:46:43.102Z,84.20
2023-05-21T01:49:50.280Z,84.28
2023-05-21T01:56:22.730Z,84.21
2023-05-21T01:59:34.127Z,84.30
2023-05-21T02:02:45.066Z,84.38
2023-05-21T02:06:10.869Z,84.31
2023-05-21T02:09:37.697Z,84.27
2023-05-21T02:12:44.668Z,84.27
2023-05-21T02:15:51.644Z,84.20
2023-05-21T02:18:58.857Z,84.06
2023-05-21T02:22:08.375Z,83.59
2023-05-21T02:25:15.549Z,83.83
2023-05-21T02:28:23.968Z,83.53
2023-05-21T02:31:31.103Z,82.07
2023-05-21T02:34:46.070Z,81.73
2023-05-21T02:38:02.174Z,80.41
2023-05-21T02:41:33.166Z,80.29
2023-05-21T02:44:41.718Z,81.29
2023-05-21T02:47:50.438Z,81.70
2023-05-21T02:50:57.575Z,81.52
2023-05-21T02:54:09.286Z,80.98
2023-05-21T02:57:16.345Z,81.13
2023-05-21T03:00:23.486Z,80.32
2023-05-21T03:03:31.668Z,79.05
2023-05-21T03:06:39.748Z,79.39
2023-05-21T03:09:46.823Z,78.64
2023-05-21T03:12:54.709Z,78.53
2023-05-21T03:16:02.039Z,78.46
2023-05-21T03:19:09.030Z,79.59
2023-05-21T03:22:16.202Z,79.03
2023-05-21T03:25:24.424Z,79.66
2023-05-21T03:28:40.185Z,78.62
2023-05-21T03:31:47.254Z,78.47
2023-05-21T03:34:54.633Z,78.84
2023-05-21T03:38:01.530Z,79.42
2023-05-21T03:41:10.567Z,78.93
2023-05-21T03:44:17.533Z,78.90
2023-05-21T03:47:37.520Z,79.24
2023-05-21T03:51:04.106Z,78.95
2023-05-21T03:54:31.884Z,78.65
2023-05-21T03:57:39.451Z,78.72
2023-05-21T04:00:47.395Z,78.86
2023-05-21T04:03:50.008Z,78.83
2023-05-21T04:07:01.520Z,78.87
2023-05-21T04:10:08.421Z,78.42
2023-05-21T04:13:15.752Z,78.73
2023-05-21T04:16:22.824Z,78.85
2023-05-21T04:19:30.031Z,78.55
2023-05-21T04:22:46.114Z,78.55
2023-05-21T04:25:53.217Z,78.61
2023-05-21T04:29:01.931Z,78.50
2023-05-21T04:32:08.455Z,78.18
2023-05-21T04:35:15.420Z,78.19
2023-05-21T04:38:42.717Z,78.02
2023-05-21T04:41:50.191Z,77.50
2023-05-21T04:44:57.105Z,77.25
2023-05-21T04:48:12.093Z,76.54
2023-05-21T04:51:39.139Z,76.55
2023-05-21T04:54:46.928Z,76.37
2023-05-21T04:57:54.163Z,75.59
2023-05-21T05:01:05.158Z,75.17
2023-05-21T05:04:16.670Z,74.42
2023-05-21T05:07:23.453Z,74.09
2023-05-21T05:10:31.376Z,73.36
2023-05-21T05:13:38.509Z,72.50
2023-05-21T05:16:45.613Z,72.16
2023-05-21T05:19:53.078Z,72.08
2023-05-21T05:23:05.730Z,71.93
2023-05-21T05:26:12.241Z,71.67
2023-05-21T05:29:19.937Z,70.50
2023-05-21T05:32:26.870Z,70.85
2023-05-21T05:35:53.572Z,71.44
2023-05-21T05:39:01.049Z,70.75
2023-05-21T05:42:08.312Z,71.14
2023-05-21T05:45:19.350Z,70.66
2023-05-21T05:48:26.307Z,69.96
2023-05-21T05:51:33.380Z,71.80
2023-05-21T05:54:40.606Z,71.14
2023-05-21T05:57:48.285Z,69.60
2023-05-21T06:00:56.173Z,68.95
2023-05-21T06:04:03.110Z,68.88
2023-05-21T06:07:10.212Z,69.10
2023-05-21T06:10:17.273Z,67.66
2023-05-21T06:13:24.245Z,67.59
2023-05-21T06:16:31.295Z,67.10
2023-05-21T06:19:38.391Z,67.47
2023-05-21T06:22:45.416Z,66.21
2023-05-21T06:25:52.374Z,65.62
2023-05-21T06:28:51.984Z,65.48
2023-05-21T06:32:18.973Z,65.78
2023-05-21T06:35:26.120Z,65.96
2023-05-21T06:38:33.030Z,65.96
2023-05-21T06:42:04.451Z,65.43
2023-05-21T06:45:19.971Z,63.72
2023-05-21T06:48:38.743Z,64.96
2023-05-21T06:51:46.744Z,64.36
2023-05-21T06:54:55.262Z,63.80
2023-05-21T06:58:05.176Z,64.65
2023-05-21T07:01:12.924Z,63.29
2023-05-21T07:04:19.886Z,62.46
2023-05-21T07:07:27.829Z,62.67
2023-05-21T07:10:35.619Z,62.31
2023-05-21T07:13:42.224Z,62.36
2023-05-21T07:16:49.241Z,62.40
2023-05-21T07:19:56.242Z,63.10
2023-05-21T07:23:03.240Z,61.66
2023-05-21T07:26:09.055Z,61.20
2023-05-21T07:29:16.268Z,61.27
2023-05-21T07:32:23.380Z,60.29
2023-05-21T07:35:32.694Z,60.47
2023-05-21T07:38:39.999Z,60.68
2023-05-21T07:41:51.153Z,60.21
2023-05-21T07:45:20.626Z,59.75
2023-05-21T07:48:27.588Z,59.60
2023-05-21T07:51:34.958Z,59.71
2023-05-21T07:54:42.750Z,60.23
2023-05-21T07:57:42.715Z,59.17
2023-05-21T08:00:49.815Z,58.57
2023-05-21T08:03:57.226Z,58.70
2023-05-21T08:07:04.557Z,56.81
2023-05-21T08:10:12.673Z,59.64
2023-05-21T08:13:32.096Z,57.75
2023-05-21T08:16:39.075Z,56.67
2023-05-21T08:19:46.144Z,55.87
2023-05-21T08:22:53.261Z,55.94
2023-05-21T08:26:00.318Z,54.62
2023-05-21T08:29:07.363Z,55.82
2023-05-21T08:32:14.470Z,54.96
2023-05-21T08:35:21.716Z,55.30
2023-05-21T08:38:37.803Z,54.79
2023-05-21T08:42:05.279Z,53.78
2023-05-21T08:45:12.104Z,55.77
2023-05-21T08:48:18.795Z,53.01
2023-05-21T08:51:45.777Z,52.49
2023-05-21T08:55:03.643Z,52.71
2023-05-21T08:58:30.672Z,53.33
2023-05-21T09:01:38.803Z,52.57
2023-05-21T09:04:45.785Z,53.14
2023-05-21T09:07:52.880Z,51.32
2023-05-21T09:11:08.948Z,52.78
2023-05-21T09:14:15.862Z,51.47
2023-05-21T09:17:28.026Z,51.10
2023-05-21T09:20:49.916Z,50.49
2023-05-21T09:23:47.243Z,48.88
2023-05-21T09:26:52.248Z,50.61
2023-05-21T09:30:08.006Z,49.95
2023-05-21T09:33:17.800Z,51.76
2023-05-21T09:36:25.226Z,50.92
2023-05-21T09:39:32.173Z,48.71
2023-05-21T09:42:39.519Z,48.54
2023-05-21T09:45:46.945Z,50.60
2023-05-21T09:48:56.878Z,50.17
2023-05-21T09:52:03.951Z,50.68
2023-05-21T09:55:11.717Z,49.23
2023-05-21T09:58:21.043Z,49.60
2023-05-21T10:01:32.119Z,49.01
2023-05-21T10:04:57.592Z,48.99
2023-05-21T10:08:04.604Z,46.29
2023-05-21T10:11:20.875Z,47.22
2023-05-21T10:14:28.150Z,46.00
2023-05-21T10:17:35.335Z,46.05
2023-05-21T10:20:42.267Z,46.62
2023-05-21T10:23:49.101Z,46.44
2023-05-21T10:26:56.453Z,45.24
2023-05-21T10:30:03.435Z,44.59
2023-05-21T10:33:10.869Z,45.31
2023-05-21T10:36:18.036Z,44.49
2023-05-21T10:39:27.167Z,44.92
2023-05-21T10:42:49.299Z,45.28
2023-05-21T10:45:56.580Z,44.34
2023-05-21T10:49:04.074Z,42.42
2023-05-21T10:52:14.499Z,42.79
2023-05-21T10:55:21.812Z,43.97
2023-05-21T10:58:30.984Z,42.50
2023-05-21T11:01:58.648Z,41.92
2023-05-21T11:05:08.524Z,40.27
2023-05-21T11:08:18.174Z,40.21
2023-05-21T11:11:25.264Z,40.75
2023-05-21T11:14:30.503Z,42.09
2023-05-21T11:17:37.509Z,39.06
2023-05-21T11:20:44.574Z,38.41
2023-05-21T11:23:50.079Z,39.53
2023-05-21T11:27:09.512Z,38.93
2023-05-21T11:30:16.440Z,38.47
2023-05-21T11:33:29.417Z,38.88
2023-05-21T11:36:37.485Z,37.09
2023-05-21T11:39:44.604Z,36.43
2023-05-21T11:42:54.505Z,36.54
2023-05-21T11:46:01.568Z,36.21
2023-05-21T11:49:09.001Z,36.23
2023-05-21T11:52:16.069Z,37.85
2023-05-21T11:55:23.251Z,35.68
2023-05-21T11:58:30.433Z,34.71
2023-05-21T12:01:43.339Z,33.06
2023-05-21T12:04:53.437Z,32.91
2023-05-21T12:08:00.512Z,32.66
2023-05-21T12:11:07.656Z,32.69
2023-05-21T12:13:59.870Z,32.29
2023-05-21T12:17:06.576Z,31.97
2023-05-21T12:20:13.525Z,31.46
2023-05-21T12:23:20.645Z,31.75
2023-05-21T12:26:27.682Z,31.98
2023-05-21T12:29:34.711Z,31.72
2023-05-21T12:32:41.765Z,30.54
2023-05-21T12:35:48.872Z,28.77
2023-05-21T12:38:55.871Z,28.04
2023-05-21T12:42:02.870Z,30.08
2023-05-21T12:45:09.859Z,29.36
2023-05-21T12:48:17.167Z,29.13
2023-05-21T12:51:23.958Z,28.71
2023-05-21T12:54:33.898Z,28.85
2023-05-21T12:57:40.876Z,29.14
2023-05-21T13:00:47.926Z,28.65
2023-05-21T13:03:54.998Z,29.73
2023-05-21T13:07:04.223Z,28.12
2023-05-21T13:10:11.892Z,28.48
2023-05-21T13:13:18.793Z,28.38
2023-05-21T13:16:26.109Z,28.04
2023-05-21T13:19:33.364Z,28.70
2023-05-21T13:22:40.068Z,28.43
2023-05-21T13:25:47.236Z,27.99
2023-05-21T13:28:54.180Z,28.24
2023-05-21T13:32:01.538Z,29.32
2023-05-21T13:35:08.446Z,27.50
2023-05-21T13:38:15.292Z,27.86
2023-05-21T13:41:21.833Z,28.00
2023-05-21T13:44:28.700Z,27.56
2023-05-21T13:47:37.490Z,26.81
2023-05-21T13:50:46.239Z,27.97
2023-05-21T13:53:54.973Z,27.97
2023-05-21T13:57:03.655Z,28.09
2023-05-21T14:00:10.874Z,27.56
2023-05-21T14:03:17.899Z,27.77
2023-05-21T14:06:24.948Z,27.29
2023-05-21T14:09:31.944Z,27.00
2023-05-21T14:12:38.885Z,26.62
2023-05-21T14:15:45.488Z,27.28
2023-05-21T14:22:02.515Z,27.45
2023-05-21T14:25:09.542Z,26.66
2023-05-21T14:28:16.522Z,26.23
2023-05-21T14:31:23.589Z,27.76
2023-05-21T14:34:30.307Z,27.84
2023-05-21T14:37:37.192Z,28.08
2023-05-21T14:40:48.485Z,27.84
2023-05-21T14:43:57.160Z,27.78
2023-05-21T14:47:04.035Z,28.01
2023-05-21T14:50:10.730Z,27.30
2023-05-21T14:53:15.828Z,26.40
2023-05-21T14:56:23.693Z,26.76
2023-05-21T14:59:30.614Z,26.60
2023-05-21T15:02:37.551Z,26.39
2023-05-21T15:05:44.572Z,25.73
2023-05-21T15:08:51.664Z,25.62
2023-05-21T15:11:58.640Z,25.84
2023-05-21T15:15:05.548Z,26.04
2023-05-21T15:18:12.571Z,25.23
2023-05-21T15:21:19.529Z,24.98
2023-05-21T15:24:26.694Z,25.21
2023-05-21T15:27:33.687Z,25.43
2023-05-21T15:30:40.764Z,25.03
2023-05-21T15:33:47.591Z,25.26
2023-05-21T15:36:54.442Z,24.90
2023-05-21T15:40:01.662Z,25.22
2023-05-21T15:42:54.484Z,24.90
2023-05-21T15:46:01.374Z,25.35
2023-05-21T15:49:08.256Z,25.58
2023-05-21T15:52:15.684Z,25.07
2023-05-21T15:55:22.433Z,25.40
2023-05-21T15:58:29.533Z,25.85
2023-05-21T16:01:35.256Z,25.95
2023-05-21T16:26:31.645Z,26.96
2023-05-21T16:29:40.749Z,26.41
2023-05-21T16:32:48.137Z,26.84
2023-05-21T16:35:55.313Z,26.59
2023-05-21T16:39:02.272Z,26.91
2023-05-21T16:42:09.467Z,27.17
2023-05-21T16:45:16.514Z,27.91
2023-05-21T16:48:31.699Z,28.07
2023-05-21T16:51:38.627Z,28.47
2023-05-21T16:54:35.411Z,28.65
2023-05-21T16:57:42.362Z,28.80
2023-05-21T17:00:49.404Z,28.54
2023-05-21T17:03:56.890Z,28.47
2023-05-21T17:07:11.866Z,29.88
2023-05-21T17:10:18.855Z,31.54
2023-05-21T17:13:22.322Z,33.85
2023-05-21T17:16:30.242Z,36.31
2023-05-21T17:19:37.660Z,38.42
2023-05-21T17:23:04.583Z,39.97
2023-05-21T17:26:31.754Z,40.29
2023-05-21T17:29:42.950Z,41.38
2023-05-21T17:32:56.060Z,41.56
2023-05-21T17:36:30.622Z,40.63
2023-05-21T17:39:37.673Z,40.10
2023-05-21T17:42:44.701Z,43.14
2023-05-21T17:45:51.767Z,42.65
2023-05-21T18:01:11.857Z,42.19
2023-05-21T18:13:54.770Z,41.78
2023-05-21T18:17:07.225Z,43.88
2023-05-21T19:44:14.829Z,58.76
2023-05-21T19:47:23.138Z,56.16
2023-05-21T19:54:01.652Z,57.02
